AirNav   Air Wisconsin Up To $57,000 Bonus
 
 1637 users online  

52J Lee County Airport-Butters Field
Bishopville, South Carolina, USA

GOING TO BISHOPVILLE?


FAA INFORMATION EFFECTIVE 17 JUNE 2021

Location

FAA Identifier: 52J
Lat/Long: 34-14-40.1460N 080-14-09.7210W
34-14.669100N 080-14.162017W
34.2444850,-80.2360336
(estimated)
Elevation: 211 ft. / 64.3 m (surveyed)
Variation: 05W (1985)
From city: 2 miles N of BISHOPVILLE, SC
Time zone: UTC -4 (UTC -5 during Standard Time)
Zip code: 29010

Airport Operations

Airport use: Open to the public
Activation date: 02/1947
Control tower: no
ARTCC: JACKSONVILLE CENTER
FSS: ANDERSON FLIGHT SERVICE STATION
NOTAMs facility: AND (NOTAM-D service available)
Attendance: UNATNDD
Wind indicator: lighted
Segmented circle: yes
Lights: ACTVT MIRL RY 6/24 & PAPI RY 06 AND RY 24 - CTAF.
Beacon: white-green (lighted land airport)
Operates sunset to sunrise.

Airport Communications

CTAF: 122.9
WX AWOS-3 at HVS (11 nm NE): 118.225 (843-339-9625)
WX AWOS-3 at SMS (16 nm SW): 118.075 (803-469-6750)
WX AWOS-3 at CDN (16 nm W): 119.975 (803-424-1979)

Nearby radio navigation aids

VOR radial/distance  VOR name  Freq  Var
CTFr178/24.4CHESTERFIELD VOR/DME108.2003W
FLOr274/28.7FLORENCE VORTAC115.2003W
MMTr064/34.1MC ENTIRE VORTAC113.2008W

 
NDB name  Hdg/Dist  Freq  Var  ID
HARTSVILLE218/11.334107WHVS .... ...- ...
SUMTER029/16.425207WSMS ... -- ...
DARLINGTON241/21.024506WUDG ..- -.. --.
EVANS321/33.042006WCFY -.-. ..-. -.--
BENNETTSVILLE236/33.623008WBES -... . ...
MANNING004/39.438106WMNI -- -. ..

Airport Services

Fuel available: 100LL
100LL:FUEL 24 HR CREDIT CARD SVC AVBL. FOR ASSISTANCE CALL 803-484-3296/229-2679.
Parking: tiedowns
Airframe service: NONE
Powerplant service: NONE
Bottled oxygen: NONE
Bulk oxygen: NONE

Runway Information

Runway 6/24

Dimensions: 3200 x 60 ft. / 975 x 18 m
Surface: asphalt, in good condition
Weight bearing capacity: 
Single wheel: 12.5
Double wheel: 25.0
Runway edge lights: medium intensity
RUNWAY 6  RUNWAY 24
Latitude: 34-14.501500N34-14.836667N
Longitude: 080-14.407500W080-13.916500W
Elevation: 211.0 ft.188.0 ft.
Traffic pattern: leftleft
Markings: basic, in fair conditionbasic, in fair condition
Visual slope indicator: 2-light PAPI on left (3.00 degrees glide path)
PAPI RY 06 AND 24 UNUSBL BYD 6 DEG LEFT OF CNTRLN.
2-light PAPI on left (3.00 degrees glide path)
Touchdown point: yes, no lightsyes, no lights
Obstructions: 25 ft. trees, 572 ft. from runway, 112 ft. left of centerline, 14:1 slope to clear
TREES 19' HIGH 105' LEFT OF CNTLN 142' FROM RWY END
22 ft. trees, 340 ft. from runway, 90 ft. right of centerline, 6:1 slope to clear

Airport Ownership and Management from official FAA records

Ownership: Publicly-owned
Owner: LEE COUNTY
123 S. MAIN ST
BISHOPVILLE, SC 29010
Phone 803-484-5341
Manager: GEORGE ROBERTS
412 MEADOWS LANE
BISHOPVILLE, SC 29010
Phone 803-229-2679

Airport Operational Statistics

Aircraft based on the field: 10
Single engine airplanes: 9
Multi engine airplanes: 1
    
Aircraft operations: avg 58/month *
62% transient general aviation
38% local general aviation
* for 12-month period ending 19 September 2020

Additional Remarks

WILDLIFE ON AND INVOF ARPT.
FOR CD CTC SHAW APCH AT 803-895-4884, WHEN APCH CLSD CTC JACKSONVILLE ARTCC AT 904-845-1592.

Instrument Procedures

There are no published instrument procedures at 52J.

Some nearby airports with instrument procedures:

KHVS - Hartsville Regional Airport (11 nm NE)
KSMS - Sumter Airport (16 nm SW)
KCDN - Woodward Field Airport (16 nm W)
KSSC - Shaw Air Force Base (20 nm SW)
KUDG - Darlington County Airport (21 nm NE)
 
Loc | Ops | Rwys | IFR | FBO | Links
Com | Nav | Svcs | Stats | Notes
Area around 52J (Lee County Airport-Butters Field)
 
Road maps at: MapQuest Bing Google
 
Aerial photo
WARNING: Photo may not be current or correct
Aerial photo of 52J (Lee County Airport-Butters Field)
Photo by King Martin
Photo taken 25-Jan-2016
looking southwest.

Do you have a better or more recent aerial photo of Lee County Airport-Butters Field that you would like to share? If so, please send us your photo.

 
Sectional chart

 
Airport distance calculator
Flying to Lee County Airport-Butters Field? Find the distance to fly.

From to 52J

Sunrise and sunset
Times for 21-Jun-2021
 Local
(UTC-4)
 Zulu
(UTC)
Morning civil twilight05:4109:41
Sunrise06:1010:10
Sunset20:3500:35
Evening civil twilight21:0401:04

Current date and time
Zulu (UTC)  21-Jun-2021 16:01:35
Local (UTC-4)  21-Jun-2021 12:01:35
 
METAR
KHVS 
11nm NE 
211555Z AUTO VRB03G11KT 10SM CLR 30/23 A2992 RMK AO2 LTG DSNT E
KSMS 
16nm SW 
211555Z AUTO 24008KT 10SM FEW032 32/24 A2993 RMK AO2
KCDN 
16nm W 
211555Z AUTO 24011KT 10SM FEW031 30/23 A2993 RMK AO2
KSSC 
20nm SW 
211456Z AUTO 23012G16KT 10SM CLR 30/23 A2992 RMK AO2 SLP131 T02960233 51007 $
KUDG 
21nm NE 
211556Z AUTO 23011KT 10SM FEW022 30/25 A2991 RMK AO2 SLP128 T03000250
TAF
KSSC 
20nm SW 
202300Z 2023/2205 18010G15KT 9999 -RA OVC070 QNH2978INS BECMG 2103/2104 22009KT 4800 BR OVC003 QNH2980INS BECMG 2109/2110 22009KT 9999 NSW BKN007 OVC015 QNH2982INS BECMG 2111/2112 25010G15KT 9999 SCT015 BKN035 QNH2981INS TEMPO 2118/2122 22015G25KT BECMG 2200/2201 24009KT 9999 OVC020 QNH2981INS TX33/2120Z TN21/2110Z LAST NO AMDS AFT 2023 NEXT 2107
KFLO 
25nm E 
211419Z 2114/2212 27008KT P6SM SCT015 FM211500 26010KT P6SM SCT020 FM211600 24014G24KT P6SM BKN250 FM220300 23010KT P6SM SCT090 BKN250
NOTAMs
Click for the latest NOTAMs
NOTAMs are issued by the DoD/FAA and will open in a separate window not controlled by AirNav.

 

 
 

FBO, Fuel Providers, and Aircraft Ground Support

  
 Business Name 
 
 Contact 
 
 Services / Description 
 
Fuel Prices
 
Comments
  
Lee County (self-serve fuel) 803-484-3296
no information available

If you are affiliated with Lee County (self-serve fuel) and would like to show here your services, contact info, web link, logo, and more, click here
100LL
SS $4.30 
 Updated 29-Apr-2021
 
   write
SS=Self service
Update Fuel Prices
 

Would you like to see your business listed on this page?

 If your business provides an interesting product or service to pilots, flight crews, aircraft, or users of the Lee County Airport-Butters Field, you should consider listing it here.  To start the listing process, click on the button below
 
Add a business
 

Other Pages about Lee County Airport-Butters Field

Update a link
 
Copyright © AirNav, LLC. All rights reserved. Privacy Policy  Contact